sensor_id;sensor_type;location;lat;lon;timestamp;temperature;humidity
20171;DHT22;10245;51.344;6.620;2023-07-09T00:00:38;23.10;66.40
20171;DHT22;10245;51.344;6.620;2023-07-09T00:03:02;23.00;66.70
20171;DHT22;10245;51.344;6.620;2023-07-09T00:05:25;23.00;66.70
20171;DHT22;10245;51.344;6.620;2023-07-09T00:07:48;22.80;67.40
20171;DHT22;10245;51.344;6.620;2023-07-09T00:10:16;22.80;67.80
20171;DHT22;10245;51.344;6.620;2023-07-09T00:12:40;22.80;67.70
20171;DHT22;10245;51.344;6.620;2023-07-09T00:15:05;22.70;67.40
20171;DHT22;10245;51.344;6.620;2023-07-09T00:17:32;22.70;68.20
20171;DHT22;10245;51.344;6.620;2023-07-09T00:19:56;22.60;68.40
20171;DHT22;10245;51.344;6.620;2023-07-09T00:22:20;22.80;67.40
20171;DHT22;10245;51.344;6.620;2023-07-09T00:24:44;22.90;66.80
20171;DHT22;10245;51.344;6.620;2023-07-09T00:27:08;23.00;66.40
20171;DHT22;10245;51.344;6.620;2023-07-09T00:29:32;22.90;66.60
20171;DHT22;10245;51.344;6.620;2023-07-09T00:31:57;22.80;67.60
20171;DHT22;10245;51.344;6.620;2023-07-09T00:34:20;22.80;66.90
20171;DHT22;10245;51.344;6.620;2023-07-09T00:36:46;22.60;67.90
20171;DHT22;10245;51.344;6.620;2023-07-09T00:39:15;22.60;68.40
20171;DHT22;10245;51.344;6.620;2023-07-09T00:41:40;22.40;69.30
20171;DHT22;10245;51.344;6.620;2023-07-09T00:44:30;22.40;69.00
20171;DHT22;10245;51.344;6.620;2023-07-09T00:47:21;22.40;69.10
20171;DHT22;10245;51.344;6.620;2023-07-09T00:49:47;22.40;69.00
20171;DHT22;10245;51.344;6.620;2023-07-09T00:52:20;22.30;69.80
20171;DHT22;10245;51.344;6.620;2023-07-09T00:54:46;22.30;69.80
20171;DHT22;10245;51.344;6.620;2023-07-09T00:57:12;22.20;70.20
20171;DHT22;10245;51.344;6.620;2023-07-09T00:59:39;22.10;70.50
20171;DHT22;10245;51.344;6.620;2023-07-09T01:02:04;22.10;71.80
20171;DHT22;10245;51.344;6.620;2023-07-09T01:04:30;22.10;71.20
20171;DHT22;10245;51.344;6.620;2023-07-09T01:06:56;22.10;71.20
20171;DHT22;10245;51.344;6.620;2023-07-09T01:09:19;21.90;71.20
20171;DHT22;10245;51.344;6.620;2023-07-09T01:11:43;22.00;71.00
20171;DHT22;10245;51.344;6.620;2023-07-09T01:14:08;21.90;71.50
20171;DHT22;10245;51.344;6.620;2023-07-09T01:16:35;21.90;71.90
20171;DHT22;10245;51.344;6.620;2023-07-09T01:19:00;21.80;72.10
20171;DHT22;10245;51.344;6.620;2023-07-09T01:21:25;21.80;72.20
20171;DHT22;10245;51.344;6.620;2023-07-09T01:23:50;21.80;72.50
20171;DHT22;10245;51.344;6.620;2023-07-09T01:26:19;21.80;72.60
20171;DHT22;10245;51.344;6.620;2023-07-09T01:28:44;21.60;72.70
20171;DHT22;10245;51.344;6.620;2023-07-09T01:31:08;21.60;73.00
20171;DHT22;10245;51.344;6.620;2023-07-09T01:33:31;21.60;73.40
20171;DHT22;10245;51.344;6.620;2023-07-09T01:35:54;21.60;73.30
20171;DHT22;10245;51.344;6.620;2023-07-09T01:38:24;21.50;73.70
20171;DHT22;10245;51.344;6.620;2023-07-09T01:40:47;21.50;73.30
20171;DHT22;10245;51.344;6.620;2023-07-09T01:43:10;21.40;73.60
20171;DHT22;10245;51.344;6.620;2023-07-09T01:45:35;21.50;73.90
20171;DHT22;10245;51.344;6.620;2023-07-09T01:47:59;21.40;74.50
20171;DHT22;10245;51.344;6.620;2023-07-09T01:50:24;21.30;74.70
20171;DHT22;10245;51.344;6.620;2023-07-09T01:52:51;21.30;74.60
20171;DHT22;10245;51.344;6.620;2023-07-09T01:55:16;21.20;74.90
20171;DHT22;10245;51.344;6.620;2023-07-09T01:57:41;21.20;74.50
20171;DHT22;10245;51.344;6.620;2023-07-09T02:00:06;21.20;74.90
20171;DHT22;10245;51.344;6.620;2023-07-09T02:02:35;21.20;74.90
20171;DHT22;10245;51.344;6.620;2023-07-09T02:05:00;21.10;74.60
20171;DHT22;10245;51.344;6.620;2023-07-09T02:07:25;21.10;75.10
20171;DHT22;10245;51.344;6.620;2023-07-09T02:09:49;21.10;75.20
20171;DHT22;10245;51.344;6.620;2023-07-09T02:12:14;21.10;75.20
20171;DHT22;10245;51.344;6.620;2023-07-09T02:14:38;21.00;75.30
20171;DHT22;10245;51.344;6.620;2023-07-09T02:17:02;21.00;75.60
20171;DHT22;10245;51.344;6.620;2023-07-09T02:19:27;21.00;75.70
20171;DHT22;10245;51.344;6.620;2023-07-09T02:21:52;21.00;76.10
20171;DHT22;10245;51.344;6.620;2023-07-09T02:24:15;21.00;76.10
20171;DHT22;10245;51.344;6.620;2023-07-09T02:26:38;20.90;76.00
20171;DHT22;10245;51.344;6.620;2023-07-09T02:29:03;20.90;76.10
20171;DHT22;10245;51.344;6.620;2023-07-09T02:31:26;20.80;76.40
20171;DHT22;10245;51.344;6.620;2023-07-09T02:33:52;20.90;76.30
20171;DHT22;10245;51.344;6.620;2023-07-09T02:36:16;20.80;76.30
20171;DHT22;10245;51.344;6.620;2023-07-09T02:38:40;20.80;76.50
20171;DHT22;10245;51.344;6.620;2023-07-09T02:41:03;20.70;76.70
20171;DHT22;10245;51.344;6.620;2023-07-09T02:43:27;20.70;76.60
20171;DHT22;10245;51.344;6.620;2023-07-09T02:45:52;20.70;77.60
20171;DHT22;10245;51.344;6.620;2023-07-09T02:48:15;20.70;77.30
20171;DHT22;10245;51.344;6.620;2023-07-09T02:50:39;20.60;77.20
20171;DHT22;10245;51.344;6.620;2023-07-09T02:53:02;20.60;77.20
20171;DHT22;10245;51.344;6.620;2023-07-09T02:55:25;20.60;77.30
20171;DHT22;10245;51.344;6.620;2023-07-09T02:57:49;20.70;76.90
20171;DHT22;10245;51.344;6.620;2023-07-09T03:00:13;20.70;77.10
20171;DHT22;10245;51.344;6.620;2023-07-09T03:02:38;20.70;76.90
20171;DHT22;10245;51.344;6.620;2023-07-09T03:05:01;20.70;77.40
20171;DHT22;10245;51.344;6.620;2023-07-09T03:07:25;20.60;76.80
20171;DHT22;10245;51.344;6.620;2023-07-09T03:09:47;20.60;76.90
20171;DHT22;10245;51.344;6.620;2023-07-09T03:12:10;20.50;77.10
20171;DHT22;10245;51.344;6.620;2023-07-09T03:14:33;20.50;77.00
20171;DHT22;10245;51.344;6.620;2023-07-09T03:16:58;20.50;77.10
20171;DHT22;10245;51.344;6.620;2023-07-09T03:19:23;20.50;77.50
20171;DHT22;10245;51.344;6.620;2023-07-09T03:21:46;20.40;77.70
20171;DHT22;10245;51.344;6.620;2023-07-09T03:24:09;20.40;78.20
20171;DHT22;10245;51.344;6.620;2023-07-09T03:26:32;20.40;78.00
20171;DHT22;10245;51.344;6.620;2023-07-09T03:28:56;20.40;77.90
20171;DHT22;10245;51.344;6.620;2023-07-09T03:31:19;20.40;77.90
20171;DHT22;10245;51.344;6.620;2023-07-09T03:33:42;20.40;77.80
20171;DHT22;10245;51.344;6.620;2023-07-09T03:36:07;20.30;78.10
20171;DHT22;10245;51.344;6.620;2023-07-09T03:38:31;20.30;78.00
20171;DHT22;10245;51.344;6.620;2023-07-09T03:40:55;20.20;78.40
20171;DHT22;10245;51.344;6.620;2023-07-09T03:43:18;20.20;78.70
20171;DHT22;10245;51.344;6.620;2023-07-09T03:45:44;20.20;78.50
20171;DHT22;10245;51.344;6.620;2023-07-09T03:48:08;20.20;78.90
20171;DHT22;10245;51.344;6.620;2023-07-09T03:50:31;20.30;78.90
20171;DHT22;10245;51.344;6.620;2023-07-09T03:52:56;20.30;78.70
20171;DHT22;10245;51.344;6.620;2023-07-09T03:55:19;20.30;78.90
20171;DHT22;10245;51.344;6.620;2023-07-09T03:57:42;20.20;79.40
20171;DHT22;10245;51.344;6.620;2023-07-09T04:00:07;20.30;79.10
20171;DHT22;10245;51.344;6.620;2023-07-09T04:02:39;20.30;79.00
20171;DHT22;10245;51.344;6.620;2023-07-09T04:05:03;20.30;79.20
20171;DHT22;10245;51.344;6.620;2023-07-09T04:07:27;20.30;79.00
20171;DHT22;10245;51.344;6.620;2023-07-09T04:09:51;20.30;79.20
20171;DHT22;10245;51.344;6.620;2023-07-09T04:12:15;20.40;78.70
20171;DHT22;10245;51.344;6.620;2023-07-09T04:14:39;20.40;78.50
20171;DHT22;10245;51.344;6.620;2023-07-09T04:17:03;20.50;78.60
20171;DHT22;10245;51.344;6.620;2023-07-09T04:19:27;20.50;78.50
20171;DHT22;10245;51.344;6.620;2023-07-09T04:21:50;20.50;77.40
20171;DHT22;10245;51.344;6.620;2023-07-09T04:24:14;20.60;77.90
20171;DHT22;10245;51.344;6.620;2023-07-09T04:26:41;20.60;77.90
20171;DHT22;10245;51.344;6.620;2023-07-09T04:29:04;20.60;78.10
20171;DHT22;10245;51.344;6.620;2023-07-09T04:31:27;20.70;77.80
20171;DHT22;10245;51.344;6.620;2023-07-09T04:33:51;20.90;77.30
20171;DHT22;10245;51.344;6.620;2023-07-09T04:36:14;21.00;77.10
20171;DHT22;10245;51.344;6.620;2023-07-09T04:38:38;21.00;76.70
20171;DHT22;10245;51.344;6.620;2023-07-09T04:41:01;21.00;76.40
20171;DHT22;10245;51.344;6.620;2023-07-09T04:43:25;21.10;76.00
20171;DHT22;10245;51.344;6.620;2023-07-09T04:45:49;21.10;75.90
20171;DHT22;10245;51.344;6.620;2023-07-09T04:48:12;21.20;76.20
20171;DHT22;10245;51.344;6.620;2023-07-09T04:50:36;21.20;75.80
20171;DHT22;10245;51.344;6.620;2023-07-09T04:52:59;21.30;75.50
20171;DHT22;10245;51.344;6.620;2023-07-09T04:55:23;21.40;75.00
20171;DHT22;10245;51.344;6.620;2023-07-09T04:57:46;21.50;74.80
20171;DHT22;10245;51.344;6.620;2023-07-09T05:00:12;21.60;74.10
20171;DHT22;10245;51.344;6.620;2023-07-09T05:02:36;21.70;74.70
20171;DHT22;10245;51.344;6.620;2023-07-09T05:04:59;21.60;74.30
20171;DHT22;10245;51.344;6.620;2023-07-09T05:07:23;21.80;73.90
20171;DHT22;10245;51.344;6.620;2023-07-09T05:09:46;21.80;74.00
20171;DHT22;10245;51.344;6.620;2023-07-09T05:12:10;22.00;73.70
20171;DHT22;10245;51.344;6.620;2023-07-09T05:14:33;22.00;73.00
20171;DHT22;10245;51.344;6.620;2023-07-09T05:16:58;22.00;72.90
20171;DHT22;10245;51.344;6.620;2023-07-09T05:19:21;22.10;72.90
20171;DHT22;10245;51.344;6.620;2023-07-09T05:21:44;22.10;73.00
20171;DHT22;10245;51.344;6.620;2023-07-09T05:24:08;22.20;72.50
20171;DHT22;10245;51.344;6.620;2023-07-09T05:26:31;22.40;71.80
20171;DHT22;10245;51.344;6.620;2023-07-09T05:28:54;22.50;71.90
20171;DHT22;10245;51.344;6.620;2023-07-09T05:31:19;22.50;71.50
20171;DHT22;10245;51.344;6.620;2023-07-09T05:33:44;22.60;71.20
20171;DHT22;10245;51.344;6.620;2023-07-09T05:36:08;22.60;71.20
20171;DHT22;10245;51.344;6.620;2023-07-09T05:38:35;22.70;70.90
20171;DHT22;10245;51.344;6.620;2023-07-09T05:41:00;22.80;71.60
20171;DHT22;10245;51.344;6.620;2023-07-09T05:43:24;22.90;71.00
20171;DHT22;10245;51.344;6.620;2023-07-09T05:45:47;23.00;70.10
20171;DHT22;10245;51.344;6.620;2023-07-09T05:48:11;23.20;69.60
20171;DHT22;10245;51.344;6.620;2023-07-09T05:50:35;23.30;69.30
20171;DHT22;10245;51.344;6.620;2023-07-09T05:52:58;23.50;68.90
20171;DHT22;10245;51.344;6.620;2023-07-09T05:55:22;23.60;68.30
20171;DHT22;10245;51.344;6.620;2023-07-09T05:57:45;23.70;68.20
20171;DHT22;10245;51.344;6.620;2023-07-09T06:00:09;23.80;67.40
20171;DHT22;10245;51.344;6.620;2023-07-09T06:02:34;23.90;67.40
20171;DHT22;10245;51.344;6.620;2023-07-09T06:04:58;24.10;67.20
20171;DHT22;10245;51.344;6.620;2023-07-09T06:07:22;24.10;66.60
20171;DHT22;10245;51.344;6.620;2023-07-09T06:09:46;24.20;65.60
20171;DHT22;10245;51.344;6.620;2023-07-09T06:12:10;24.30;65.80
20171;DHT22;10245;51.344;6.620;2023-07-09T06:14:33;24.40;64.80
20171;DHT22;10245;51.344;6.620;2023-07-09T06:16:57;24.60;64.60
20171;DHT22;10245;51.344;6.620;2023-07-09T06:19:20;24.80;64.80
20171;DHT22;10245;51.344;6.620;2023-07-09T06:21:44;24.80;65.50
20171;DHT22;10245;51.344;6.620;2023-07-09T06:24:09;25.00;63.90
20171;DHT22;10245;51.344;6.620;2023-07-09T06:26:32;25.10;63.30
20171;DHT22;10245;51.344;6.620;2023-07-09T06:28:56;25.10;63.30
20171;DHT22;10245;51.344;6.620;2023-07-09T06:31:19;25.30;62.90
20171;DHT22;10245;51.344;6.620;2023-07-09T06:33:44;25.40;62.20
20171;DHT22;10245;51.344;6.620;2023-07-09T06:36:08;25.50;61.30
20171;DHT22;10245;51.344;6.620;2023-07-09T06:38:31;25.50;61.20
20171;DHT22;10245;51.344;6.620;2023-07-09T06:40:57;25.70;61.80
20171;DHT22;10245;51.344;6.620;2023-07-09T06:43:20;25.70;62.00
20171;DHT22;10245;51.344;6.620;2023-07-09T06:45:51;25.80;61.80
20171;DHT22;10245;51.344;6.620;2023-07-09T06:48:16;26.00;60.90
20171;DHT22;10245;51.344;6.620;2023-07-09T06:50:40;26.00;60.80
20171;DHT22;10245;51.344;6.620;2023-07-09T06:53:03;26.20;60.70
20171;DHT22;10245;51.344;6.620;2023-07-09T06:55:26;26.40;59.80
20171;DHT22;10245;51.344;6.620;2023-07-09T06:57:51;26.70;60.00
20171;DHT22;10245;51.344;6.620;2023-07-09T07:00:14;26.80;60.60
20171;DHT22;10245;51.344;6.620;2023-07-09T07:02:38;26.90;60.30
20171;DHT22;10245;51.344;6.620;2023-07-09T07:05:02;27.00;59.20
20171;DHT22;10245;51.344;6.620;2023-07-09T07:07:25;27.10;58.60
20171;DHT22;10245;51.344;6.620;2023-07-09T07:09:48;27.10;58.10
20171;DHT22;10245;51.344;6.620;2023-07-09T07:12:19;27.10;58.60
20171;DHT22;10245;51.344;6.620;2023-07-09T07:14:47;27.20;57.80
20171;DHT22;10245;51.344;6.620;2023-07-09T07:17:10;27.30;58.00
20171;DHT22;10245;51.344;6.620;2023-07-09T07:19:33;27.40;58.70
20171;DHT22;10245;51.344;6.620;2023-07-09T07:21:56;27.40;56.90
20171;DHT22;10245;51.344;6.620;2023-07-09T07:24:20;27.50;58.50
20171;DHT22;10245;51.344;6.620;2023-07-09T07:26:43;27.90;56.50
20171;DHT22;10245;51.344;6.620;2023-07-09T07:29:07;28.10;55.90
20171;DHT22;10245;51.344;6.620;2023-07-09T07:31:31;28.10;55.60
20171;DHT22;10245;51.344;6.620;2023-07-09T07:33:54;28.00;54.80
20171;DHT22;10245;51.344;6.620;2023-07-09T07:36:18;28.10;57.90
20171;DHT22;10245;51.344;6.620;2023-07-09T07:38:51;28.20;57.20
20171;DHT22;10245;51.344;6.620;2023-07-09T07:41:15;28.60;56.30
20171;DHT22;10245;51.344;6.620;2023-07-09T07:43:38;28.80;56.30
20171;DHT22;10245;51.344;6.620;2023-07-09T07:46:01;28.60;55.50
20171;DHT22;10245;51.344;6.620;2023-07-09T07:48:27;28.90;54.20
20171;DHT22;10245;51.344;6.620;2023-07-09T07:50:50;28.50;54.70
20171;DHT22;10245;51.344;6.620;2023-07-09T07:53:13;28.30;56.90
20171;DHT22;10245;51.344;6.620;2023-07-09T07:55:37;28.70;57.80
20171;DHT22;10245;51.344;6.620;2023-07-09T07:58:00;29.20;55.50
20171;DHT22;10245;51.344;6.620;2023-07-09T08:00:25;29.00;56.00
20171;DHT22;10245;51.344;6.620;2023-07-09T08:02:48;29.10;57.80
20171;DHT22;10245;51.344;6.620;2023-07-09T08:05:13;29.50;53.70
20171;DHT22;10245;51.344;6.620;2023-07-09T08:07:37;29.40;55.80
20171;DHT22;10245;51.344;6.620;2023-07-09T08:10:00;29.90;53.60
20171;DHT22;10245;51.344;6.620;2023-07-09T08:12:24;29.80;52.30
20171;DHT22;10245;51.344;6.620;2023-07-09T08:14:47;30.10;53.50
20171;DHT22;10245;51.344;6.620;2023-07-09T08:17:10;30.10;52.20
20171;DHT22;10245;51.344;6.620;2023-07-09T08:19:44;30.10;54.30
20171;DHT22;10245;51.344;6.620;2023-07-09T08:22:10;30.50;51.80
20171;DHT22;10245;51.344;6.620;2023-07-09T08:24:33;30.50;49.80
20171;DHT22;10245;51.344;6.620;2023-07-09T08:26:57;30.60;52.10
20171;DHT22;10245;51.344;6.620;2023-07-09T08:29:22;30.70;49.50
20171;DHT22;10245;51.344;6.620;2023-07-09T08:31:45;30.70;50.20
20171;DHT22;10245;51.344;6.620;2023-07-09T08:34:08;30.60;51.00
20171;DHT22;10245;51.344;6.620;2023-07-09T08:36:32;30.80;50.00
20171;DHT22;10245;51.344;6.620;2023-07-09T08:38:56;31.00;49.60
20171;DHT22;10245;51.344;6.620;2023-07-09T08:41:32;31.00;50.00
20171;DHT22;10245;51.344;6.620;2023-07-09T08:44:14;30.80;49.50
20171;DHT22;10245;51.344;6.620;2023-07-09T08:46:57;30.90;50.60
20171;DHT22;10245;51.344;6.620;2023-07-09T08:49:30;30.80;50.70
20171;DHT22;10245;51.344;6.620;2023-07-09T08:51:58;31.40;49.80
20171;DHT22;10245;51.344;6.620;2023-07-09T08:54:31;31.40;49.90
20171;DHT22;10245;51.344;6.620;2023-07-09T08:57:00;31.80;49.00
20171;DHT22;10245;51.344;6.620;2023-07-09T08:59:28;31.70;49.80
20171;DHT22;10245;51.344;6.620;2023-07-09T09:01:53;31.80;50.20
20171;DHT22;10245;51.344;6.620;2023-07-09T09:04:24;32.30;46.50
20171;DHT22;10245;51.344;6.620;2023-07-09T09:06:53;32.40;47.20
20171;DHT22;10245;51.344;6.620;2023-07-09T09:09:28;32.50;46.40
20171;DHT22;10245;51.344;6.620;2023-07-09T09:11:58;32.60;45.30
20171;DHT22;10245;51.344;6.620;2023-07-09T09:14:29;33.00;43.10
20171;DHT22;10245;51.344;6.620;2023-07-09T09:16:55;33.20;43.00
20171;DHT22;10245;51.344;6.620;2023-07-09T09:19:23;32.50;44.40
20171;DHT22;10245;51.344;6.620;2023-07-09T09:21:54;32.50;45.90
20171;DHT22;10245;51.344;6.620;2023-07-09T09:24:26;33.10;43.60
20171;DHT22;10245;51.344;6.620;2023-07-09T09:26:51;33.50;42.80
20171;DHT22;10245;51.344;6.620;2023-07-09T09:29:16;32.90;45.20
20171;DHT22;10245;51.344;6.620;2023-07-09T09:31:43;32.60;46.90
20171;DHT22;10245;51.344;6.620;2023-07-09T09:34:17;32.90;45.10
20171;DHT22;10245;51.344;6.620;2023-07-09T09:36:41;33.40;43.80
20171;DHT22;10245;51.344;6.620;2023-07-09T09:39:04;33.50;43.60
20171;DHT22;10245;51.344;6.620;2023-07-09T09:41:36;33.50;45.50
20171;DHT22;10245;51.344;6.620;2023-07-09T09:44:00;33.90;43.70
20171;DHT22;10245;51.344;6.620;2023-07-09T09:46:26;34.00;43.90
20171;DHT22;10245;51.344;6.620;2023-07-09T09:48:54;34.20;41.30
20171;DHT22;10245;51.344;6.620;2023-07-09T09:51:18;34.00;42.50
20171;DHT22;10245;51.344;6.620;2023-07-09T09:53:46;34.10;42.70
20171;DHT22;10245;51.344;6.620;2023-07-09T09:56:14;34.40;41.60
20171;DHT22;10245;51.344;6.620;2023-07-09T09:58:41;34.30;43.50
20171;DHT22;10245;51.344;6.620;2023-07-09T10:01:05;34.30;42.70
20171;DHT22;10245;51.344;6.620;2023-07-09T10:03:33;34.50;41.10
20171;DHT22;10245;51.344;6.620;2023-07-09T10:05:59;34.20;42.80
20171;DHT22;10245;51.344;6.620;2023-07-09T10:08:31;34.30;41.20
20171;DHT22;10245;51.344;6.620;2023-07-09T10:11:11;34.30;41.10
20171;DHT22;10245;51.344;6.620;2023-07-09T10:13:44;34.50;41.70
20171;DHT22;10245;51.344;6.620;2023-07-09T10:16:13;34.90;40.30
20171;DHT22;10245;51.344;6.620;2023-07-09T10:18:48;34.90;40.70
20171;DHT22;10245;51.344;6.620;2023-07-09T10:21:20;34.80;40.30
20171;DHT22;10245;51.344;6.620;2023-07-09T10:23:53;34.20;39.70
20171;DHT22;10245;51.344;6.620;2023-07-09T10:26:25;34.50;40.50
20171;DHT22;10245;51.344;6.620;2023-07-09T10:29:12;34.50;40.50
20171;DHT22;10245;51.344;6.620;2023-07-09T10:31:50;34.70;39.50
20171;DHT22;10245;51.344;6.620;2023-07-09T10:34:26;34.90;38.20
20171;DHT22;10245;51.344;6.620;2023-07-09T10:37:07;35.10;38.20
20171;DHT22;10245;51.344;6.620;2023-07-09T10:39:43;35.10;42.20
20171;DHT22;10245;51.344;6.620;2023-07-09T10:42:16;34.80;40.00
20171;DHT22;10245;51.344;6.620;2023-07-09T10:44:48;34.60;37.90
20171;DHT22;10245;51.344;6.620;2023-07-09T10:47:24;34.70;39.40
20171;DHT22;10245;51.344;6.620;2023-07-09T10:49:52;35.00;37.30
20171;DHT22;10245;51.344;6.620;2023-07-09T10:52:22;35.10;39.30
20171;DHT22;10245;51.344;6.620;2023-07-09T10:54:57;34.90;38.40
20171;DHT22;10245;51.344;6.620;2023-07-09T10:57:29;34.90;38.90
20171;DHT22;10245;51.344;6.620;2023-07-09T10:59:55;35.40;38.00
20171;DHT22;10245;51.344;6.620;2023-07-09T11:02:21;35.80;36.60
20171;DHT22;10245;51.344;6.620;2023-07-09T11:04:51;35.60;36.50
20171;DHT22;10245;51.344;6.620;2023-07-09T11:07:20;35.50;38.70
20171;DHT22;10245;51.344;6.620;2023-07-09T11:09:49;35.70;37.40
20171;DHT22;10245;51.344;6.620;2023-07-09T11:12:26;35.20;36.10
20171;DHT22;10245;51.344;6.620;2023-07-09T11:14:57;35.40;37.60
20171;DHT22;10245;51.344;6.620;2023-07-09T11:17:22;35.60;37.80
20171;DHT22;10245;51.344;6.620;2023-07-09T11:19:48;36.30;35.50
20171;DHT22;10245;51.344;6.620;2023-07-09T11:22:19;35.90;36.60
20171;DHT22;10245;51.344;6.620;2023-07-09T11:24:46;35.60;36.60
20171;DHT22;10245;51.344;6.620;2023-07-09T11:27:18;35.60;36.80
20171;DHT22;10245;51.344;6.620;2023-07-09T11:29:46;35.80;41.00
20171;DHT22;10245;51.344;6.620;2023-07-09T11:32:20;35.80;35.80
20171;DHT22;10245;51.344;6.620;2023-07-09T11:34:46;35.50;36.50
20171;DHT22;10245;51.344;6.620;2023-07-09T11:37:11;35.60;39.10
20171;DHT22;10245;51.344;6.620;2023-07-09T11:39:43;35.70;37.70
20171;DHT22;10245;51.344;6.620;2023-07-09T11:42:24;36.10;37.20
20171;DHT22;10245;51.344;6.620;2023-07-09T11:44:51;36.10;38.30
20171;DHT22;10245;51.344;6.620;2023-07-09T11:47:22;35.40;36.40
20171;DHT22;10245;51.344;6.620;2023-07-09T11:49:52;36.00;38.00
20171;DHT22;10245;51.344;6.620;2023-07-09T11:52:24;35.60;40.50
20171;DHT22;10245;51.344;6.620;2023-07-09T11:54:49;35.80;35.10
20171;DHT22;10245;51.344;6.620;2023-07-09T11:57:13;35.60;38.20
20171;DHT22;10245;51.344;6.620;2023-07-09T11:59:38;35.50;37.10
20171;DHT22;10245;51.344;6.620;2023-07-09T12:02:01;35.80;37.60
20171;DHT22;10245;51.344;6.620;2023-07-09T12:04:31;36.00;36.90
20171;DHT22;10245;51.344;6.620;2023-07-09T12:06:58;35.60;38.40
20171;DHT22;10245;51.344;6.620;2023-07-09T12:09:23;35.50;42.20
20171;DHT22;10245;51.344;6.620;2023-07-09T12:11:49;35.50;37.50
20171;DHT22;10245;51.344;6.620;2023-07-09T12:14:15;35.30;37.20
20171;DHT22;10245;51.344;6.620;2023-07-09T12:16:41;35.40;40.20
20171;DHT22;10245;51.344;6.620;2023-07-09T12:19:08;35.30;40.90
20171;DHT22;10245;51.344;6.620;2023-07-09T12:21:37;34.90;38.60
20171;DHT22;10245;51.344;6.620;2023-07-09T12:24:01;35.00;38.60
20171;DHT22;10245;51.344;6.620;2023-07-09T12:26:25;35.00;39.10
20171;DHT22;10245;51.344;6.620;2023-07-09T12:28:51;34.80;38.20
20171;DHT22;10245;51.344;6.620;2023-07-09T12:31:16;35.10;39.30
20171;DHT22;10245;51.344;6.620;2023-07-09T12:33:47;35.00;37.80
20171;DHT22;10245;51.344;6.620;2023-07-09T12:36:11;34.80;40.70
20171;DHT22;10245;51.344;6.620;2023-07-09T12:38:42;34.90;38.80
20171;DHT22;10245;51.344;6.620;2023-07-09T12:41:06;35.00;39.50
20171;DHT22;10245;51.344;6.620;2023-07-09T12:43:40;34.60;40.70
20171;DHT22;10245;51.344;6.620;2023-07-09T12:46:04;34.70;39.30
20171;DHT22;10245;51.344;6.620;2023-07-09T12:48:29;34.90;39.50
20171;DHT22;10245;51.344;6.620;2023-07-09T12:50:57;34.90;38.80
20171;DHT22;10245;51.344;6.620;2023-07-09T12:53:23;34.50;41.10
20171;DHT22;10245;51.344;6.620;2023-07-09T12:55:50;34.20;38.90
20171;DHT22;10245;51.344;6.620;2023-07-09T12:58:19;34.10;38.60
20171;DHT22;10245;51.344;6.620;2023-07-09T13:00:47;34.00;42.90
20171;DHT22;10245;51.344;6.620;2023-07-09T13:03:14;34.00;43.40
20171;DHT22;10245;51.344;6.620;2023-07-09T13:05:37;33.90;44.50
20171;DHT22;10245;51.344;6.620;2023-07-09T13:08:01;33.80;42.00
20171;DHT22;10245;51.344;6.620;2023-07-09T13:10:27;33.80;47.00
20171;DHT22;10245;51.344;6.620;2023-07-09T13:12:54;33.70;45.40
20171;DHT22;10245;51.344;6.620;2023-07-09T13:15:23;33.50;45.60
20171;DHT22;10245;51.344;6.620;2023-07-09T13:17:48;33.20;43.40
20171;DHT22;10245;51.344;6.620;2023-07-09T13:20:11;33.20;46.30
20171;DHT22;10245;51.344;6.620;2023-07-09T13:22:35;31.30;51.80
20171;DHT22;10245;51.344;6.620;2023-07-09T13:24:58;30.30;55.90
20171;DHT22;10245;51.344;6.620;2023-07-09T13:27:21;26.70;66.00
20171;DHT22;10245;51.344;6.620;2023-07-09T13:29:46;26.80;70.00
20171;DHT22;10245;51.344;6.620;2023-07-09T13:32:11;27.40;66.10
20171;DHT22;10245;51.344;6.620;2023-07-09T13:34:35;26.00;74.80
20171;DHT22;10245;51.344;6.620;2023-07-09T13:37:00;25.20;79.40
20171;DHT22;10245;51.344;6.620;2023-07-09T13:39:23;25.30;81.00
20171;DHT22;10245;51.344;6.620;2023-07-09T13:41:51;25.20;82.80
20171;DHT22;10245;51.344;6.620;2023-07-09T13:44:19;25.80;84.60
20171;DHT22;10245;51.344;6.620;2023-07-09T13:46:45;25.90;84.00
20171;DHT22;10245;51.344;6.620;2023-07-09T13:49:10;25.80;82.90
20171;DHT22;10245;51.344;6.620;2023-07-09T13:51:35;25.50;82.70
20171;DHT22;10245;51.344;6.620;2023-07-09T13:53:59;25.70;84.40
20171;DHT22;10245;51.344;6.620;2023-07-09T13:56:24;25.50;85.70
20171;DHT22;10245;51.344;6.620;2023-07-09T13:58:47;25.60;85.40
20171;DHT22;10245;51.344;6.620;2023-07-09T14:01:13;25.90;85.70
20171;DHT22;10245;51.344;6.620;2023-07-09T14:03:40;26.10;85.60
20171;DHT22;10245;51.344;6.620;2023-07-09T14:06:05;25.80;86.60
20171;DHT22;10245;51.344;6.620;2023-07-09T14:08:28;25.80;86.40
20171;DHT22;10245;51.344;6.620;2023-07-09T14:10:51;26.00;86.80
20171;DHT22;10245;51.344;6.620;2023-07-09T14:13:16;26.00;86.00
20171;DHT22;10245;51.344;6.620;2023-07-09T14:15:41;26.00;86.10
20171;DHT22;10245;51.344;6.620;2023-07-09T14:18:05;25.70;85.00
20171;DHT22;10245;51.344;6.620;2023-07-09T14:20:35;25.60;86.60
20171;DHT22;10245;51.344;6.620;2023-07-09T14:22:58;26.10;79.50
20171;DHT22;10245;51.344;6.620;2023-07-09T14:25:24;26.20;78.90
20171;DHT22;10245;51.344;6.620;2023-07-09T14:27:50;26.70;70.90
20171;DHT22;10245;51.344;6.620;2023-07-09T14:30:15;26.40;70.10
20171;DHT22;10245;51.344;6.620;2023-07-09T14:32:39;26.60;68.70
20171;DHT22;10245;51.344;6.620;2023-07-09T14:35:10;25.90;69.00
20171;DHT22;10245;51.344;6.620;2023-07-09T14:37:37;25.30;73.70
20171;DHT22;10245;51.344;6.620;2023-07-09T14:40:00;23.80;78.50
20171;DHT22;10245;51.344;6.620;2023-07-09T14:42:26;22.00;87.30
20171;DHT22;10245;51.344;6.620;2023-07-09T14:44:50;22.70;85.10
20171;DHT22;10245;51.344;6.620;2023-07-09T14:47:16;23.00;85.90
20171;DHT22;10245;51.344;6.620;2023-07-09T14:49:41;22.80;86.30
20171;DHT22;10245;51.344;6.620;2023-07-09T14:52:08;22.60;88.20
20171;DHT22;10245;51.344;6.620;2023-07-09T14:54:36;22.60;89.40
20171;DHT22;10245;51.344;6.620;2023-07-09T14:56:59;22.40;91.20
20171;DHT22;10245;51.344;6.620;2023-07-09T14:59:23;22.20;92.10
20171;DHT22;10245;51.344;6.620;2023-07-09T15:01:46;22.00;92.20
20171;DHT22;10245;51.344;6.620;2023-07-09T15:04:27;22.00;90.30
20171;DHT22;10245;51.344;6.620;2023-07-09T15:06:53;22.00;90.10
20171;DHT22;10245;51.344;6.620;2023-07-09T15:09:20;22.00;90.40
20171;DHT22;10245;51.344;6.620;2023-07-09T15:11:47;21.90;88.90
20171;DHT22;10245;51.344;6.620;2023-07-09T15:14:12;21.90;89.50
20171;DHT22;10245;51.344;6.620;2023-07-09T15:16:35;22.00;90.00
20171;DHT22;10245;51.344;6.620;2023-07-09T15:18:58;21.90;90.90
20171;DHT22;10245;51.344;6.620;2023-07-09T15:21:22;21.90;90.70